x

Buoy B01 - Western Maine Shelf (44030) Wave Buoy

10:04am - Thu 23rd Mar 2017 All times are EDT. -4 hours from GMT.

  • Sig Wave height 1.6ft
  • Peak Period 3s
  • Wind
    11mph, 18mph gusts
  • Sea Temp 39°f
  • Air Temp 22°f
  • Sea Pressure 1030mb
  • Buoy B01 - Western Maine Shelf
  • Buoy B01 - Western Maine Shelf

More Historic Weather Station data

Upgrade to MSW Pro to gain access to the past 30 days of data for over 8000 Wavebouys and Weather Stations around the globe.

Join Pro

Comparision Forecast

View Surf forecast
   
Thu 03/23 10:04am 1.6ft 3s 11 18 mph 1030mb 39f 22f
9:04am 2.5ft 3s 16 20 mph 1029.9mb 39f 20f
8:04am 2ft 3s 16 20 mph 1029.6mb 39f 20f
7:04am 2.5ft 3s 22 29 mph 1028.8mb 39f 20f
6:04am 2.5ft 3s 22 27 mph 1028mb 39f 20f
5:04am 2.5ft 3s 22 29 mph 1027.1mb 39f 20f
4:04am 3ft 4s 27 34 mph 1026.3mb 39f 21f
3:04am 3ft 4s 25 31 mph 1026.3mb 39f 21f
2:04am 3ft 4s 25 29 mph 1025.9mb 39f 21f
1:04am 2.5ft 4s 22 27 mph 1025.5mb 39f 20f
12:04am 2.5ft 3s 22 29 mph 1025mb 39f 20f
Wed 03/22 11:04pm 3.5ft 4s 22 29 mph 1024.2mb 39f 20f
10:04pm 4ft 4s 27 34 mph 1023.2mb 39f 20f
9:04pm 4.5ft 5s 27 31 mph 1022.1mb 39f 21f
8:04pm 4.5ft 5s 27 34 mph 1020.6mb 39f 21f
7:04pm 5ft 5s 34 43 mph 1019.1mb 39f 22f
6:04pm 5ft 5s 31 38 mph 1017.5mb 39f 24f
5:04pm 5ft 5s 31 38 mph 1016.1mb 39f 24f
4:04pm 4.5ft 5s 31 38 mph 1015.3mb 39f 25f
3:04pm 5ft 5s 34 40 mph 1014.1mb 39f 25f
2:04pm 5ft 5s 31 38 mph 1013.3mb 39f 25f
1:04pm 5ft 5s 27 34 mph 1013mb 39f 26f
12:04pm 5ft 4s 34 40 mph 1011.5mb 39f 27f
11:04am 4.5ft 4s 31 36 mph 1010.6mb 39f 29f
10:04am 4ft 5s 29 34 mph 1009.3mb 39f 31f
9:04am 4.5ft 4s 31 38 mph 1007.9mb 39f 33f
8:04am 3.5ft 4s 29 36 mph 1006.2mb 39f 36f
7:04am 3.5ft 11s 25 31 mph 1005.1mb 39f 38f
6:04am  -   -  22 27 mph 1004.6mb 39f 38f
5:04am  -   -  16 18 mph 1005mb 39f 39f
4:04am 3ft 11s 11 13 mph 1005.4mb 39f 39f
3:04am 3.5ft 11s 11
mph
1006.2mb 39f 39f
2:04am 4.5ft 11s 11
mph
1007.1mb 39f 40f
1:04am 4ft 11s 9 11 mph 1007.3mb 39f 40f
12:04am 3.5ft 11s 11 13 mph 1007.8mb 39f 42f
Tue 03/21 11:04pm 3ft 11s 11 13 mph 1007.8mb 40f 42f
10:04pm 3.5ft 11s 11
mph
1007.8mb 40f 40f
9:04pm 3.5ft 11s 7 9 mph 1007.8mb 40f 41f
8:04pm 4ft 11s 9 11 mph 1007.5mb 40f 41f
7:04pm 4.5ft 11s 11 13 mph 1007.1mb 39f 41f
6:04pm 4ft 11s 13
mph
1007.3mb 39f 41f
5:04pm 4.5ft 11s 9
mph
1007.5mb 40f 41f
4:04pm 4.5ft 11s 7 9 mph 1007.9mb 40f 41f
3:04pm 5ft 11s 7 9 mph 1008.6mb 40f 40f
2:04pm 4.5ft 11s 7 9 mph 1009.2mb 40f 41f
1:04pm 6ft 11s 7
mph
1010mb 40f 41f
12:04pm 6ft 11s 2 4 mph 1010.6mb 40f 41f
11:04am 5.5ft 11s 4 7 mph 1010.9mb 39f 40f
10:04am 5ft 11s 2 4 mph 1011.2mb 39f 39f
9:04am 4.5ft 11s 4 7 mph 1011.3mb 39f 38f
8:04am 5ft 11s 4 7 mph 1010.5mb 39f 38f
7:04am 4.5ft 11s 4
mph
1010.3mb 39f 39f
6:04am 5ft 11s 4 7 mph 1010.3mb 39f 39f
5:04am 5ft 11s 11 13 mph 1010.4mb 39f 38f
4:04am 6ft 11s 9
mph
1010.3mb 39f 39f
3:04am 6.5ft 11s 9 11 mph 1010.8mb 39f 39f
2:04am 5.5ft 8s 9 11 mph 1011.3mb 39f 39f
1:04am 7ft 11s 11 13 mph 1011.7mb 39f 40f
12:04am 6.5ft 11s 13 16 mph 1012.2mb 39f 41f
Mon 03/20 11:04pm 6.5ft 11s 7 9 mph 1012.2mb 39f 39f
10:04pm 6ft 11s 4 9 mph 1012.4mb 39f 40f
9:04pm 6ft 11s 2 4 mph 1012.5mb 39f 40f
8:04pm 7ft 11s 2 4 mph 1012.8mb 39f 41f
7:04pm 7ft 11s 4
mph
1012.6mb 39f 42f
6:04pm 9ft 11s 4 7 mph 1012.6mb 39f 42f
5:04pm 8.5ft 11s 4 7 mph 1013mb 39f 43f
4:04pm 10ft 11s 4 7 mph 1013.4mb 39f 42f
3:04pm 8ft 11s 4 7 mph 1013.8mb 39f 41f
2:04pm 11ft 11s 9 11 mph 1014.6mb 39f 41f
1:04pm 10.5ft 11s 16 18 mph 1015.4mb 39f 41f
12:04pm 11ft 11s 18 20 mph 1016.4mb 39f 40f
11:04am 10ft 11s 22 25 mph 1017.1mb 39f 39f
10:04am 10.5ft 11s 22 27 mph 1017.4mb 39f 37f
9:04am  -   -  22 29 mph 1017.3mb 39f 36f
8:04am 10ft 11s 27 31 mph 1016.9mb 39f 37f
7:04am 9.5ft 11s 22 25 mph 1017.1mb 39f 36f
6:04am 10ft 11s 20 25 mph 1016.9mb 39f 36f
5:04am 10ft 11s 20 25 mph 1016.5mb 39f 36f
4:04am 12ft 11s 22 29 mph 1016.3mb 39f 36f
3:04am 11ft 11s 20 25 mph 1016.9mb 39f 36f
2:04am 13ft 11s 22 27 mph 1017.4mb 39f 36f
1:04am 10ft 11s 22 25 mph 1017.8mb 39f 37f
12:04am 13ft 11s 20 25 mph 1018.2mb 39f 37f
Sun 03/19 10:04pm 10ft 11s 16 22 mph 1019.6mb 39f 38f
9:04pm 9ft 8s 13 16 mph 1020.2mb 39f 37f
8:04pm 8ft 8s 16 18 mph 1020.4mb 39f 37f
7:04pm 8ft 8s 16 18 mph 1020.3mb 39f 37f
6:04pm 8ft 8s 18 20 mph 1019.8mb 39f 37f
5:04pm 7.5ft 6s 20 22 mph 1020.2mb 39f 37f
4:04pm 8ft 8s 22 25 mph 1021mb 39f 36f